This is the latest recevied weather packets stored in our database for station/object KG5MMT-12. If no packets are shown the sender has not sent any weather packets the latest 10 day(s).
| Time | Temp. | Humidity | Pressure | Rain* | Wind** | Luminosity | Snow |
|---|---|---|---|---|---|---|---|
| 1777813735 | 2.22° C | 88% | 0 hPa | 0 mm | - | - | - |
| 1777813435 | 2.22° C | 88% | 0 hPa | 0 mm | - | - | - |
| 1777813135 | 2.22° C | 89% | 0 hPa | 0 mm | - | - | - |
| 1777812835 | 1.67° C | 88% | 0 hPa | 0 mm | - | - | - |
| 1777812535 | 1.67° C | 88% | 0 hPa | 0 mm | - | - | - |
| 1777812235 | 1.67° C | 90% | 0 hPa | 0 mm | - | - | - |
| 1777811935 | 1.67° C | 90% | 0 hPa | 0 mm | - | - | - |
| 1777811635 | 1.67° C | 90% | 0 hPa | 0 mm | - | - | - |
| 1777811335 | 1.67° C | 90% | 0 hPa | 0 mm | - | - | - |
| 1777811035 | 1.67° C | 89% | 0 hPa | 0 mm | - | - | - |
| 1777810789 | 11.67° C | 50% | 0 hPa | 0 mm | - | - | - |
| 1777810750 | 11.67° C | 50% | 0 hPa | 0 mm | - | - | - |
| 1777810735 | 1.67° C | 90% | 0 hPa | 0 mm | - | - | - |
| 1777810435 | 2.22° C | 89% | 0 hPa | 0 mm | - | - | - |
| 1777810135 | 2.22° C | 90% | 0 hPa | 0 mm | - | - | - |
| 1777809835 | 2.22° C | 90% | 0 hPa | 0 mm | - | - | - |
| 1777809535 | 2.22° C | 90% | 0 hPa | 0 mm | - | - | - |
| 1777809235 | 2.22° C | 90% | 0 hPa | 0 mm | - | - | - |
| 1777808935 | 2.22° C | 90% | 0 hPa | 0 mm | - | - | - |
| 1777808635 | 2.22° C | 90% | 0 hPa | 0 mm | - | - | - |
| 1777808335 | 2.22° C | 90% | 0 hPa | 0 mm | - | - | - |
| 1777808035 | 2.22° C | 91% | 0 hPa | 0 mm | - | - | - |
| 1777807736 | 2.22° C | 91% | 0 hPa | 0 mm | - | - | - |
| 1777807435 | 2.78° C | 91% | 0 hPa | 0 mm | - | - | - |
| 1777807136 | 2.78° C | 91% | 0 hPa | 0 mm | - | - | - |
* Rain latest hour (hover to see other rain measurements)
** Current wind speed in m/s (hover to see current wind gust speed)